Mitchell Airport


Codes: YMIT/MTQ
Name: Mitchell Airport
City:
Country: Australia
Elevation: 1144 ft.

Photos at Mitchell Airport


   Photos courtesy of SpottingLog. You can add your own sightings and photos by signing up for a free trial today.



No photos found.

Weather at Mitchell Airport


Time (UTC)DescriptionTempratureWindCloud coverageVisibilityPressureHumidity
16-Jun-2024 03:00Clear Sky15°C9 mph, SW6%10000m1018hPa54%
16-Jun-2024 06:00Few Clouds17°C13 mph, SW16%10000m1016hPa47%
16-Jun-2024 09:00Broken Clouds15°C9 mph, S67%10000m1017hPa53%
16-Jun-2024 12:00Overcast Clouds13°C11 mph, S85%10000m1018hPa66%
16-Jun-2024 15:00Broken Clouds10°C9 mph, SW60%10000m1019hPa79%
16-Jun-2024 18:00Scattered Clouds8°C9 mph, SW31%10000m1019hPa79%
16-Jun-2024 21:00Clear Sky6°C9 mph, SW0%10000m1021hPa83%
17-Jun-2024 00:00Clear Sky12°C11 mph, SW0%10000m1021hPa55%
17-Jun-2024 03:00Clear Sky15°C16 mph, SW0%10000m1018hPa29%
17-Jun-2024 06:00Clear Sky15°C16 mph, SW0%10000m1017hPa24%
17-Jun-2024 09:00Clear Sky10°C9 mph, SW0%10000m1020hPa36%
17-Jun-2024 12:00Clear Sky8°C9 mph, SW0%10000m1021hPa43%
17-Jun-2024 15:00Clear Sky6°C9 mph, SW0%10000m1022hPa52%
17-Jun-2024 18:00Clear Sky5°C9 mph, SW0%10000m1021hPa60%
17-Jun-2024 21:00Clear Sky4°C7 mph, SW0%10000m1022hPa69%
18-Jun-2024 00:00Clear Sky11°C9 mph, SW0%10000m1022hPa45%
18-Jun-2024 03:00Clear Sky15°C11 mph, SW0%10000m1019hPa28%
18-Jun-2024 06:00Clear Sky16°C11 mph, SW0%10000m1018hPa26%
18-Jun-2024 09:00Few Clouds10°C7 mph, SW21%10000m1020hPa37%
18-Jun-2024 12:00Few Clouds8°C7 mph, SW15%10000m1020hPa42%
18-Jun-2024 15:00Clear Sky7°C4 mph, SW1%10000m1020hPa49%
18-Jun-2024 18:00Few Clouds7°C4 mph, W19%10000m1019hPa48%
18-Jun-2024 21:00Scattered Clouds7°C4 mph, N25%10000m1020hPa45%
19-Jun-2024 00:00Scattered Clouds14°C2 mph, NW25%10000m1020hPa30%
19-Jun-2024 03:00Few Clouds18°C2 mph, SW18%10000m1017hPa24%
19-Jun-2024 06:00Few Clouds20°C7 mph, W17%10000m1016hPa28%
19-Jun-2024 09:00Clear Sky14°C4 mph, W9%10000m1017hPa42%
19-Jun-2024 12:00Few Clouds13°C7 mph, NW11%10000m1018hPa45%
19-Jun-2024 15:00Few Clouds13°C7 mph, NW12%10000m1017hPa47%
19-Jun-2024 18:00Few Clouds12°C9 mph, NW11%10000m1017hPa49%
19-Jun-2024 21:00Scattered Clouds12°C7 mph, NW29%10000m1019hPa50%
20-Jun-2024 00:00Broken Clouds17°C7 mph, NW58%10000m1019hPa40%
20-Jun-2024 03:00Broken Clouds19°C11 mph, SW77%10000m1017hPa37%
20-Jun-2024 06:00Overcast Clouds16°C9 mph, SW87%10000m1017hPa50%
20-Jun-2024 09:00Overcast Clouds15°C7 mph, W100%10000m1018hPa66%
20-Jun-2024 12:00Overcast Clouds14°C9 mph, W93%10000m1019hPa77%
20-Jun-2024 15:00Overcast Clouds14°C7 mph, W100%10000m1019hPa72%
20-Jun-2024 18:00Overcast Clouds12°C11 mph, SW95%10000m1020hPa54%
20-Jun-2024 21:00Overcast Clouds10°C9 mph, SW99%10000m1023hPa60%
21-Jun-2024 00:00Overcast Clouds14°C9 mph, SW86%10000m1024hPa45%